createdAt,value
2022-08-11T00:05:20.038Z,20.00
2022-08-11T00:10:27.498Z,19.90
2022-08-11T00:15:44.532Z,19.90
2022-08-11T00:20:47.220Z,19.90
2022-08-11T00:25:53.038Z,19.70
2022-08-11T00:30:57.501Z,19.60
2022-08-11T00:36:01.342Z,19.50
2022-08-11T00:41:28.713Z,19.50
2022-08-11T00:47:14.428Z,19.40
2022-08-11T00:52:34.652Z,19.40
2022-08-11T00:57:54.533Z,19.30
2022-08-11T01:03:08.045Z,19.20
2022-08-11T01:08:42.301Z,19.10
2022-08-11T01:14:01.386Z,19.10
2022-08-11T01:20:45.453Z,19.10
2022-08-11T01:25:56.769Z,19.00
2022-08-11T01:31:37.153Z,19.00
2022-08-11T01:37:04.698Z,18.90
2022-08-11T01:42:56.351Z,18.80
2022-08-11T01:48:13.161Z,18.90
2022-08-11T01:53:33.109Z,18.80
2022-08-11T01:59:15.717Z,18.70
2022-08-11T02:04:35.970Z,18.60
2022-08-11T02:10:22.441Z,18.50
2022-08-11T02:15:36.433Z,18.50
2022-08-11T02:21:17.681Z,18.40
2022-08-11T02:26:44.429Z,18.30
2022-08-11T02:32:39.484Z,18.30
2022-08-11T02:37:53.167Z,18.20
2022-08-11T02:43:15.726Z,18.20
2022-08-11T02:49:11.072Z,18.20
2022-08-11T02:54:31.807Z,18.10
2022-08-11T03:00:00.706Z,18.10
2022-08-11T03:05:13.707Z,18.00
2022-08-11T03:10:42.875Z,18.00
2022-08-11T03:16:31.212Z,17.90
2022-08-11T03:22:03.585Z,17.80
2022-08-11T03:27:38.865Z,17.80
2022-08-11T03:33:39.656Z,17.70
2022-08-11T03:39:04.427Z,17.60
2022-08-11T03:44:25.022Z,17.60
2022-08-11T03:49:53.725Z,17.60
2022-08-11T03:55:10.946Z,17.50
2022-08-11T04:00:50.098Z,17.50
2022-08-11T04:06:13.211Z,17.50
2022-08-11T04:11:54.892Z,17.50
2022-08-11T04:17:19.148Z,17.50
2022-08-11T04:23:07.763Z,17.50
2022-08-11T04:28:42.974Z,17.50
2022-08-11T04:34:24.117Z,17.50
2022-08-11T04:40:02.296Z,17.50
2022-08-11T04:45:34.831Z,17.60
2022-08-11T04:51:16.911Z,17.60
2022-08-11T04:56:43.363Z,17.70
2022-08-11T05:02:22.923Z,17.70
2022-08-11T05:08:02.532Z,17.80
2022-08-11T05:13:27.040Z,17.90
2022-08-11T05:18:48.886Z,17.90
2022-08-11T05:24:23.416Z,18.00
2022-08-11T05:30:04.564Z,18.10
2022-08-11T05:35:07.589Z,18.30
2022-08-11T05:40:31.248Z,18.40
2022-08-11T05:46:03.636Z,18.40
2022-08-11T05:51:30.570Z,18.60
2022-08-11T05:56:35.039Z,18.80
2022-08-11T06:01:37.506Z,18.80
2022-08-11T06:06:47.132Z,18.90
2022-08-11T06:11:49.542Z,19.10
2022-08-11T06:16:54.899Z,19.20
2022-08-11T06:21:57.114Z,19.40
2022-08-11T06:27:15.557Z,19.60
2022-08-11T06:32:19.281Z,19.80
2022-08-11T06:37:35.805Z,20.00
2022-08-11T06:42:41.417Z,20.20
2022-08-11T06:47:47.801Z,20.40
2022-08-11T06:52:53.766Z,20.50
2022-08-11T06:58:15.017Z,20.70
2022-08-11T07:03:19.585Z,20.80
2022-08-11T07:09:01.715Z,21.00
2022-08-11T07:14:23.146Z,21.20
2022-08-11T07:19:47.088Z,21.40
2022-08-11T07:25:43.875Z,21.60
2022-08-11T07:30:47.375Z,21.90
2022-08-11T07:35:57.221Z,22.10
2022-08-11T07:40:59.618Z,22.30
2022-08-11T07:46:23.358Z,22.60
2022-08-11T07:51:43.519Z,22.80
2022-08-11T07:56:54.932Z,23.10
2022-08-11T08:02:17.864Z,23.20
2022-08-11T08:07:40.932Z,23.50
2022-08-11T08:13:02.467Z,23.70
2022-08-11T08:18:09.376Z,23.90
2022-08-11T08:23:34.588Z,24.10
2022-08-11T08:28:36.856Z,24.80
2022-08-11T08:33:42.040Z,25.00
2022-08-11T08:38:49.692Z,25.00
2022-08-11T08:44:05.877Z,25.20
2022-08-11T08:49:21.985Z,25.30
2022-08-11T08:54:41.895Z,25.40
2022-08-11T08:59:48.945Z,25.50
2022-08-11T09:04:51.960Z,25.60
2022-08-11T09:09:56.339Z,25.70
2022-08-11T09:15:04.852Z,25.70
2022-08-11T09:20:09.631Z,25.70
2022-08-11T09:25:30.988Z,25.90
2022-08-11T09:30:33.148Z,26.10
2022-08-11T09:35:38.709Z,26.10
2022-08-11T09:40:44.828Z,26.00
2022-08-11T09:45:51.955Z,26.00
2022-08-11T09:51:01.539Z,26.20
2022-08-11T09:56:24.724Z,26.30
2022-08-11T10:01:31.113Z,26.60
2022-08-11T10:06:55.481Z,26.70
2022-08-11T10:11:59.302Z,26.80
2022-08-11T10:17:06.125Z,26.90
2022-08-11T10:22:27.823Z,27.10
2022-08-11T10:28:17.015Z,27.20
2022-08-11T10:33:11.108Z,27.00
2022-08-11T10:38:21.097Z,27.10
2022-08-11T10:44:01.415Z,27.40
2022-08-11T10:48:45.939Z,27.60
2022-08-11T10:54:11.510Z,27.70
2022-08-11T10:59:15.955Z,27.70
2022-08-11T11:04:28.997Z,27.60
2022-08-11T11:09:49.030Z,27.30
2022-08-11T11:15:17.812Z,27.30
2022-08-11T11:20:47.727Z,27.60
2022-08-11T11:26:10.287Z,27.80
2022-08-11T11:31:23.301Z,27.90
2022-08-11T11:36:32.178Z,27.90
2022-08-11T11:41:34.865Z,27.90
2022-08-11T11:46:38.791Z,28.00
2022-08-11T11:51:41.933Z,28.10
2022-08-11T11:56:45.449Z,28.10
2022-08-11T12:01:50.292Z,28.10
2022-08-11T12:07:13.198Z,27.90
2022-08-11T12:12:33.548Z,27.90
2022-08-11T12:17:36.321Z,28.10
2022-08-11T12:22:56.625Z,28.10
2022-08-11T12:27:58.934Z,28.30
2022-08-11T12:33:00.868Z,28.60
2022-08-11T12:38:09.528Z,29.00
2022-08-11T12:43:39.818Z,29.20
2022-08-11T12:49:05.875Z,29.30
2022-08-11T12:54:52.384Z,29.70
2022-08-11T13:00:14.038Z,30.30
2022-08-11T13:05:16.578Z,29.90
2022-08-11T13:10:40.082Z,30.40
2022-08-11T13:15:42.879Z,30.90
2022-08-11T13:20:48.394Z,31.20
2022-08-11T13:25:52.730Z,31.20
2022-08-11T13:31:15.237Z,31.80
2022-08-11T13:36:24.719Z,32.10
2022-08-11T13:41:41.029Z,33.10
2022-08-11T13:46:44.796Z,32.70
2022-08-11T13:51:50.019Z,32.90
2022-08-11T13:56:56.836Z,32.90
2022-08-11T14:02:22.977Z,33.00
2022-08-11T14:07:34.478Z,33.30
2022-08-11T14:12:56.662Z,33.30
2022-08-11T14:18:06.227Z,33.40
2022-08-11T14:23:14.154Z,34.20
2022-08-11T14:28:31.886Z,34.90
2022-08-11T14:33:58.790Z,34.40
2022-08-11T14:39:03.332Z,34.40
2022-08-11T14:44:26.199Z,33.80
2022-08-11T14:49:29.252Z,33.60
2022-08-11T14:54:51.432Z,34.30
2022-08-11T14:59:54.107Z,34.10
2022-08-11T15:04:58.417Z,34.90
2022-08-11T15:10:12.725Z,35.60
2022-08-11T15:15:34.936Z,36.50
2022-08-11T15:20:55.814Z,35.00
2022-08-11T15:26:19.311Z,34.60
2022-08-11T15:31:32.078Z,34.60
2022-08-11T15:36:53.604Z,34.90
2022-08-11T15:42:21.085Z,33.00
2022-08-11T15:47:28.345Z,32.00
2022-08-11T15:52:39.200Z,31.60
2022-08-11T15:58:00.300Z,31.60
2022-08-11T16:03:23.185Z,31.60
2022-08-11T16:08:32.592Z,31.40
2022-08-11T16:13:41.614Z,30.80
2022-08-11T16:18:56.443Z,30.20
2022-08-11T16:24:01.846Z,30.00
2022-08-11T16:29:04.046Z,29.60
2022-08-11T16:34:26.912Z,29.60
2022-08-11T16:39:28.800Z,29.10
2022-08-11T16:44:49.908Z,29.00
2022-08-11T16:49:55.712Z,28.90
2022-08-11T16:54:57.517Z,28.80
2022-08-11T17:00:04.831Z,28.80
2022-08-11T17:05:54.475Z,28.60
2022-08-11T17:11:27.962Z,28.60
2022-08-11T17:16:35.580Z,28.50
2022-08-11T17:22:06.994Z,28.30
2022-08-11T17:27:10.995Z,28.20
2022-08-11T17:32:56.496Z,28.10
2022-08-11T17:38:09.900Z,28.00
2022-08-11T17:43:30.470Z,27.70
2022-08-11T17:48:36.942Z,27.50
2022-08-11T17:54:23.715Z,27.40
2022-08-11T17:59:49.367Z,27.20
2022-08-11T18:04:53.227Z,27.10
2022-08-11T18:10:13.978Z,26.90
2022-08-11T18:15:34.297Z,26.70
2022-08-11T18:20:55.336Z,26.60
2022-08-11T18:26:19.403Z,26.40
2022-08-11T18:31:41.786Z,26.20
2022-08-11T18:37:19.443Z,26.00
2022-08-11T18:42:46.221Z,25.90
2022-08-11T18:48:15.427Z,25.60
2022-08-11T18:53:35.811Z,25.50
2022-08-11T18:59:00.046Z,25.20
2022-08-11T19:04:25.399Z,25.10
2022-08-11T19:09:52.663Z,24.90
2022-08-11T19:15:16.789Z,24.60
2022-08-11T19:20:41.227Z,24.50
2022-08-11T19:26:06.518Z,24.40
2022-08-11T19:31:28.341Z,24.20
2022-08-11T19:36:50.237Z,24.00
2022-08-11T19:42:11.732Z,23.90
2022-08-11T19:47:35.188Z,23.80
2022-08-11T19:52:58.115Z,23.60
2022-08-11T19:58:19.779Z,23.50
2022-08-11T20:03:40.245Z,23.40
2022-08-11T20:09:02.605Z,23.30
2022-08-11T20:14:26.461Z,23.20
2022-08-11T20:19:55.646Z,23.10
2022-08-11T20:25:17.379Z,23.40
2022-08-11T20:30:38.120Z,23.50
2022-08-11T20:35:58.973Z,23.40
2022-08-11T20:41:21.609Z,23.40
2022-08-11T20:46:43.749Z,23.40
2022-08-11T20:52:06.328Z,23.40
2022-08-11T20:57:35.670Z,23.40
2022-08-11T21:03:11.077Z,23.40
2022-08-11T21:08:34.849Z,23.30
2022-08-11T21:13:58.051Z,23.20
2022-08-11T21:19:55.064Z,23.10
2022-08-11T21:25:16.845Z,23.00
2022-08-11T21:30:37.539Z,22.90
2022-08-11T21:35:58.663Z,22.90
2022-08-11T21:41:20.070Z,22.80
2022-08-11T21:46:42.194Z,22.80
2022-08-11T21:52:02.477Z,22.70
2022-08-11T21:57:24.255Z,22.60
2022-08-11T22:02:48.952Z,22.60
2022-08-11T22:08:14.389Z,22.50
2022-08-11T22:13:35.094Z,22.50
2022-08-11T22:18:56.304Z,22.30
2022-08-11T22:24:18.313Z,22.10
2022-08-11T22:29:51.457Z,22.00
2022-08-11T22:35:13.470Z,22.10
2022-08-11T22:40:33.777Z,21.90
2022-08-11T22:45:54.103Z,21.90
2022-08-11T22:51:17.515Z,21.70
2022-08-11T22:56:38.978Z,21.60
2022-08-11T23:02:00.537Z,21.50
2022-08-11T23:07:50.059Z,21.50
2022-08-11T23:13:03.153Z,21.40
2022-08-11T23:18:24.317Z,21.30
2022-08-11T23:23:47.345Z,21.20
2022-08-11T23:29:07.535Z,21.20
2022-08-11T23:34:41.674Z,21.10
2022-08-11T23:40:17.296Z,21.00
2022-08-11T23:45:41.820Z,20.90
2022-08-11T23:51:03.807Z,20.80
2022-08-11T23:56:24.987Z,20.70
